sensor_id;sensor_type;location;lat;lon;timestamp;pressure;altitude;pressure_sealevel;temperature;humidity
21838;BME280;11081;45.946;6.140;2023-07-31T00:02:14;95472.66;;;18.98;61.60
21838;BME280;11081;45.946;6.140;2023-07-31T00:04:44;95465.78;;;18.97;61.71
21838;BME280;11081;45.946;6.140;2023-07-31T00:07:12;95471.06;;;18.97;61.51
21838;BME280;11081;45.946;6.140;2023-07-31T00:09:40;95457.28;;;18.95;61.22
21838;BME280;11081;45.946;6.140;2023-07-31T00:12:08;95457.28;;;18.95;61.31
21838;BME280;11081;45.946;6.140;2023-07-31T00:14:36;95457.28;;;18.89;61.64
21838;BME280;11081;45.946;6.140;2023-07-31T00:17:04;95455.19;;;18.86;61.27
21838;BME280;11081;45.946;6.140;2023-07-31T00:19:32;95450.69;;;18.87;61.47
21838;BME280;11081;45.946;6.140;2023-07-31T00:22:02;95455.72;;;18.83;61.60
21838;BME280;11081;45.946;6.140;2023-07-31T00:24:30;95451.50;;;18.77;61.85
21838;BME280;11081;45.946;6.140;2023-07-31T00:26:58;95450.44;;;18.78;61.87
21838;BME280;11081;45.946;6.140;2023-07-31T00:29:26;95444.06;;;18.79;62.12
21838;BME280;11081;45.946;6.140;2023-07-31T00:31:54;95435.63;;;18.77;62.16
21838;BME280;11081;45.946;6.140;2023-07-31T00:34:22;95434.53;;;18.73;62.26
21838;BME280;11081;45.946;6.140;2023-07-31T00:36:50;95424.50;;;18.70;62.47
21838;BME280;11081;45.946;6.140;2023-07-31T00:39:19;95425.00;;;18.72;62.23
21838;BME280;11081;45.946;6.140;2023-07-31T00:41:47;95427.13;;;18.70;62.43
21838;BME280;11081;45.946;6.140;2023-07-31T00:44:16;95423.69;;;18.70;62.19
21838;BME280;11081;45.946;6.140;2023-07-31T00:46:44;95419.19;;;18.70;62.29
21838;BME280;11081;45.946;6.140;2023-07-31T00:49:12;95431.91;;;18.68;62.24
21838;BME280;11081;45.946;6.140;2023-07-31T00:51:41;95422.66;;;18.66;62.39
21838;BME280;11081;45.946;6.140;2023-07-31T00:54:09;95428.47;;;18.63;62.60
21838;BME280;11081;45.946;6.140;2023-07-31T00:56:40;95422.34;;;18.62;62.86
21838;BME280;11081;45.946;6.140;2023-07-31T00:59:08;95413.38;;;18.58;63.15
21838;BME280;11081;45.946;6.140;2023-07-31T01:01:36;95423.41;;;18.56;63.12
21838;BME280;11081;45.946;6.140;2023-07-31T01:04:05;95414.97;;;18.54;62.97
21838;BME280;11081;45.946;6.140;2023-07-31T01:06:37;95411.75;;;18.52;63.21
21838;BME280;11081;45.946;6.140;2023-07-31T01:09:11;95417.03;;;18.52;63.34
21838;BME280;11081;45.946;6.140;2023-07-31T01:11:48;95408.59;;;18.50;63.20
21838;BME280;11081;45.946;6.140;2023-07-31T01:14:19;95403.31;;;18.50;63.43
21838;BME280;11081;45.946;6.140;2023-07-31T01:16:48;95408.59;;;18.50;63.57
21838;BME280;11081;45.946;6.140;2023-07-31T01:19:18;95406.47;;;18.47;63.71
21838;BME280;11081;45.946;6.140;2023-07-31T01:22:02;95396.44;;;18.44;63.96
21838;BME280;11081;45.946;6.140;2023-07-31T01:24:48;95401.72;;;18.39;63.85
21838;BME280;11081;45.946;6.140;2023-07-31T01:27:26;95399.06;;;18.34;64.21
21838;BME280;11081;45.946;6.140;2023-07-31T01:30:00;95402.78;;;18.33;64.40
21838;BME280;11081;45.946;6.140;2023-07-31T01:32:39;95394.28;;;18.31;64.44
21838;BME280;11081;45.946;6.140;2023-07-31T01:35:08;95399.06;;;18.34;64.52
21838;BME280;11081;45.946;6.140;2023-07-31T01:37:36;95400.66;;;18.35;64.61
21838;BME280;11081;45.946;6.140;2023-07-31T01:40:05;95398.28;;;18.33;64.76
21838;BME280;11081;45.946;6.140;2023-07-31T01:42:35;95392.75;;;18.35;64.54
21838;BME280;11081;45.946;6.140;2023-07-31T01:45:04;95395.38;;;18.35;64.62
21838;BME280;11081;45.946;6.140;2023-07-31T01:47:32;95394.28;;;18.31;64.73
21838;BME280;11081;45.946;6.140;2023-07-31T01:50:00;95385.84;;;18.28;64.99
21838;BME280;11081;45.946;6.140;2023-07-31T01:52:28;95387.69;;;18.28;65.14
21838;BME280;11081;45.946;6.140;2023-07-31T01:54:56;95384.25;;;18.27;65.21
21838;BME280;11081;45.946;6.140;2023-07-31T01:57:24;95382.13;;;18.29;65.48
21838;BME280;11081;45.946;6.140;2023-07-31T01:59:54;95377.66;;;18.30;65.62
21838;BME280;11081;45.946;6.140;2023-07-31T02:02:22;95376.59;;;18.31;65.30
21838;BME280;11081;45.946;6.140;2023-07-31T02:04:51;95375.28;;;18.28;65.55
21838;BME280;11081;45.946;6.140;2023-07-31T02:07:19;95384.25;;;18.27;65.74
21838;BME280;11081;45.946;6.140;2023-07-31T02:09:47;95376.06;;;18.29;66.13
21838;BME280;11081;45.946;6.140;2023-07-31T02:12:15;95392.72;;;18.29;65.92
21838;BME280;11081;45.946;6.140;2023-07-31T02:14:43;95375.00;;;18.30;66.10
21838;BME280;11081;45.946;6.140;2023-07-31T02:17:13;95367.88;;;18.31;66.41
21838;BME280;11081;45.946;6.140;2023-07-31T02:19:41;95372.34;;;18.30;66.77
21838;BME280;11081;45.946;6.140;2023-07-31T02:22:09;95369.97;;;18.28;67.13
21838;BME280;11081;45.946;6.140;2023-07-31T02:24:37;95373.69;;;18.27;67.31
21838;BME280;11081;45.946;6.140;2023-07-31T02:27:05;95366.81;;;18.26;67.29
21838;BME280;11081;45.946;6.140;2023-07-31T02:29:33;95354.13;;;18.28;67.51
21838;BME280;11081;45.946;6.140;2023-07-31T02:32:01;95357.81;;;18.27;67.77
21838;BME280;11081;45.946;6.140;2023-07-31T02:34:31;95367.88;;;18.25;67.68
21838;BME280;11081;45.946;6.140;2023-07-31T02:36:59;95368.13;;;18.24;68.12
21838;BME280;11081;45.946;6.140;2023-07-31T02:39:27;95359.69;;;18.22;68.00
21838;BME280;11081;45.946;6.140;2023-07-31T02:41:55;95357.31;;;18.20;67.93
21838;BME280;11081;45.946;6.140;2023-07-31T02:44:23;95366.03;;;18.21;68.21
21838;BME280;11081;45.946;6.140;2023-07-31T02:46:51;95355.72;;;18.19;68.28
21838;BME280;11081;45.946;6.140;2023-07-31T02:49:19;95361.00;;;18.19;68.41
21838;BME280;11081;45.946;6.140;2023-07-31T02:51:48;95358.34;;;18.19;68.52
21838;BME280;11081;45.946;6.140;2023-07-31T02:54:16;95357.84;;;18.17;68.50
21838;BME280;11081;45.946;6.140;2023-07-31T02:56:44;95356.78;;;18.13;68.86
21838;BME280;11081;45.946;6.140;2023-07-31T02:59:12;95365.72;;;17.97;69.61
21838;BME280;11081;45.946;6.140;2023-07-31T03:01:40;95354.63;;;18.00;69.43
21838;BME280;11081;45.946;6.140;2023-07-31T03:04:08;95356.22;;;18.06;69.29
21838;BME280;11081;45.946;6.140;2023-07-31T03:06:36;95358.59;;;18.08;69.30
21838;BME280;11081;45.946;6.140;2023-07-31T03:09:06;95360.44;;;18.07;69.47
21838;BME280;11081;45.946;6.140;2023-07-31T03:11:34;95354.09;;;18.03;69.63
21838;BME280;11081;45.946;6.140;2023-07-31T03:14:02;95360.97;;;17.99;69.82
21838;BME280;11081;45.946;6.140;2023-07-31T03:16:30;95367.31;;;17.93;70.33
21838;BME280;11081;45.946;6.140;2023-07-31T03:18:58;95367.28;;;17.83;70.75
21838;BME280;11081;45.946;6.140;2023-07-31T03:21:26;95369.38;;;17.81;70.87
21838;BME280;11081;45.946;6.140;2023-07-31T03:23:54;95387.88;;;17.81;70.78
21838;BME280;11081;45.946;6.140;2023-07-31T03:26:23;95382.31;;;17.82;70.79
21838;BME280;11081;45.946;6.140;2023-07-31T03:28:51;95383.63;;;17.80;71.02
21838;BME280;11081;45.946;6.140;2023-07-31T03:31:19;95391.03;;;17.78;71.05
21838;BME280;11081;45.946;6.140;2023-07-31T03:33:47;95388.91;;;17.80;71.06
21838;BME280;11081;45.946;6.140;2023-07-31T03:36:16;95388.41;;;17.83;70.98
21838;BME280;11081;45.946;6.140;2023-07-31T03:38:44;95393.16;;;17.86;70.90
21838;BME280;11081;45.946;6.140;2023-07-31T03:41:12;95391.03;;;17.88;71.13
21838;BME280;11081;45.946;6.140;2023-07-31T03:43:45;95381.78;;;17.85;71.17
21838;BME280;11081;45.946;6.140;2023-07-31T03:46:14;95378.88;;;17.87;70.92
21838;BME280;11081;45.946;6.140;2023-07-31T03:48:42;95378.34;;;17.85;71.01
21838;BME280;11081;45.946;6.140;2023-07-31T03:51:09;95374.13;;;17.84;71.09
21838;BME280;11081;45.946;6.140;2023-07-31T03:53:37;95378.09;;;17.81;71.34
21838;BME280;11081;45.946;6.140;2023-07-31T03:56:05;95373.06;;;17.80;70.89
21838;BME280;11081;45.946;6.140;2023-07-31T03:58:33;95375.19;;;17.78;71.17
21838;BME280;11081;45.946;6.140;2023-07-31T04:01:04;95381.53;;;17.77;71.29
21838;BME280;11081;45.946;6.140;2023-07-31T04:03:32;95380.47;;;17.78;71.33
21838;BME280;11081;45.946;6.140;2023-07-31T04:06:00;95384.16;;;17.77;71.09
21838;BME280;11081;45.946;6.140;2023-07-31T04:08:28;95391.53;;;17.75;71.40
21838;BME280;11081;45.946;6.140;2023-07-31T04:10:56;95391.53;;;17.75;71.23
21838;BME280;11081;45.946;6.140;2023-07-31T04:13:24;95394.72;;;17.77;71.51
21838;BME280;11081;45.946;6.140;2023-07-31T04:15:54;95396.81;;;17.75;71.34
21838;BME280;11081;45.946;6.140;2023-07-31T04:18:24;95387.84;;;17.76;71.35
21838;BME280;11081;45.946;6.140;2023-07-31T04:20:52;95386.28;;;17.75;71.13
21838;BME280;11081;45.946;6.140;2023-07-31T04:23:21;95383.09;;;17.73;71.00
21838;BME280;11081;45.946;6.140;2023-07-31T04:25:49;95387.28;;;17.68;70.53
21838;BME280;11081;45.946;6.140;2023-07-31T04:28:17;95382.00;;;17.68;70.37
21838;BME280;11081;45.946;6.140;2023-07-31T04:30:45;95393.06;;;17.65;70.25
21838;BME280;11081;45.946;6.140;2023-07-31T04:33:16;95400.44;;;17.63;70.31
21838;BME280;11081;45.946;6.140;2023-07-31T04:35:50;95405.19;;;17.66;70.15
21838;BME280;11081;45.946;6.140;2023-07-31T04:38:19;95403.13;;;17.68;70.35
21838;BME280;11081;45.946;6.140;2023-07-31T04:40:47;95394.16;;;17.70;70.59
21838;BME280;11081;45.946;6.140;2023-07-31T04:43:15;95383.59;;;17.70;70.63
21838;BME280;11081;45.946;6.140;2023-07-31T04:45:45;95373.03;;;17.70;71.18
21838;BME280;11081;45.946;6.140;2023-07-31T04:48:14;95375.44;;;17.71;71.18
21838;BME280;11081;45.946;6.140;2023-07-31T04:50:42;95384.69;;;17.74;70.92
21838;BME280;11081;45.946;6.140;2023-07-31T04:53:12;95394.72;;;17.77;71.12
21838;BME280;11081;45.946;6.140;2023-07-31T04:55:40;95391.03;;;17.78;71.48
21838;BME280;11081;45.946;6.140;2023-07-31T04:58:08;95395.00;;;17.80;71.81
21838;BME280;11081;45.946;6.140;2023-07-31T05:00:36;95387.34;;;17.84;71.73
21838;BME280;11081;45.946;6.140;2023-07-31T05:03:04;95378.88;;;17.87;71.66
21838;BME280;11081;45.946;6.140;2023-07-31T05:05:33;95375.72;;;17.90;71.68
21838;BME280;11081;45.946;6.140;2023-07-31T05:08:01;95370.22;;;17.91;71.79
21838;BME280;11081;45.946;6.140;2023-07-31T05:10:31;95381.31;;;17.93;71.93
21838;BME280;11081;45.946;6.140;2023-07-31T05:12:59;95384.69;;;17.84;72.09
21838;BME280;11081;45.946;6.140;2023-07-31T05:15:27;95388.66;;;17.76;72.40
21838;BME280;11081;45.946;6.140;2023-07-31T05:17:55;95383.63;;;17.80;72.68
21838;BME280;11081;45.946;6.140;2023-07-31T05:20:23;95389.47;;;17.87;72.43
21838;BME280;11081;45.946;6.140;2023-07-31T05:22:51;95394.22;;;17.90;72.33
21838;BME280;11081;45.946;6.140;2023-07-31T05:25:19;95393.19;;;17.96;72.54
21838;BME280;11081;45.946;6.140;2023-07-31T05:27:48;95392.66;;;17.99;71.98
21838;BME280;11081;45.946;6.140;2023-07-31T05:30:16;95395.84;;;18.01;71.60
21838;BME280;11081;45.946;6.140;2023-07-31T05:32:44;95400.06;;;18.02;72.02
21838;BME280;11081;45.946;6.140;2023-07-31T05:35:12;95407.47;;;17.95;72.20
21838;BME280;11081;45.946;6.140;2023-07-31T05:37:40;95395.84;;;18.01;72.00
21838;BME280;11081;45.946;6.140;2023-07-31T05:40:09;95393.72;;;18.03;71.66
21838;BME280;11081;45.946;6.140;2023-07-31T05:42:37;95390.03;;;18.04;71.58
21838;BME280;11081;45.946;6.140;2023-07-31T05:45:07;95386.34;;;18.05;71.42
21838;BME280;11081;45.946;6.140;2023-07-31T05:47:36;95386.91;;;18.12;71.34
21838;BME280;11081;45.946;6.140;2023-07-31T05:50:04;95386.38;;;18.15;71.17
21838;BME280;11081;45.946;6.140;2023-07-31T05:52:32;95399.06;;;18.23;71.11
21838;BME280;11081;45.946;6.140;2023-07-31T05:55:00;95396.16;;;18.25;71.52
21838;BME280;11081;45.946;6.140;2023-07-31T05:57:29;95387.41;;;18.24;71.64
21838;BME280;11081;45.946;6.140;2023-07-31T05:59:57;95398.00;;;18.29;71.24
21838;BME280;11081;45.946;6.140;2023-07-31T06:02:26;95404.88;;;18.31;70.70
21838;BME280;11081;45.946;6.140;2023-07-31T06:04:55;95395.88;;;18.32;70.75
21838;BME280;11081;45.946;6.140;2023-07-31T06:07:23;95394.84;;;18.33;70.76
21838;BME280;11081;45.946;6.140;2023-07-31T06:09:51;95383.22;;;18.34;71.12
21838;BME280;11081;45.946;6.140;2023-07-31T06:12:21;95383.22;;;18.34;71.12
21838;BME280;11081;45.946;6.140;2023-07-31T06:14:49;95383.22;;;18.34;70.91
21838;BME280;11081;45.946;6.140;2023-07-31T06:17:17;95380.03;;;18.42;70.43
21838;BME280;11081;45.946;6.140;2023-07-31T06:19:46;95380.56;;;18.49;70.54
21838;BME280;11081;45.946;6.140;2023-07-31T06:22:16;95366.28;;;18.50;70.76
21838;BME280;11081;45.946;6.140;2023-07-31T06:24:44;95362.09;;;18.54;70.43
21838;BME280;11081;45.946;6.140;2023-07-31T06:27:12;95355.72;;;18.60;70.23
21838;BME280;11081;45.946;6.140;2023-07-31T06:29:40;95352.03;;;18.66;70.32
21838;BME280;11081;45.946;6.140;2023-07-31T06:32:08;95352.03;;;18.71;70.35
21838;BME280;11081;45.946;6.140;2023-07-31T06:34:36;95343.06;;;18.77;70.04
21838;BME280;11081;45.946;6.140;2023-07-31T06:37:06;95351.50;;;18.84;70.17
21838;BME280;11081;45.946;6.140;2023-07-31T06:39:33;95355.72;;;18.70;70.13
21838;BME280;11081;45.946;6.140;2023-07-31T06:42:02;95355.47;;;18.77;70.43
21838;BME280;11081;45.946;6.140;2023-07-31T06:44:30;95364.19;;;18.82;69.60
21838;BME280;11081;45.946;6.140;2023-07-31T06:46:58;95359.69;;;18.83;69.24
21838;BME280;11081;45.946;6.140;2023-07-31T06:49:26;95359.97;;;18.76;68.72
21838;BME280;11081;45.946;6.140;2023-07-31T06:51:54;95375.56;;;18.83;68.12
21838;BME280;11081;45.946;6.140;2023-07-31T06:54:23;95377.97;;;18.74;68.51
21838;BME280;11081;45.946;6.140;2023-07-31T06:56:51;95379.78;;;18.48;69.82
21838;BME280;11081;45.946;6.140;2023-07-31T06:59:19;95372.38;;;18.35;70.43
21838;BME280;11081;45.946;6.140;2023-07-31T07:01:47;95374.22;;;18.35;70.47
21838;BME280;11081;45.946;6.140;2023-07-31T07:04:15;95369.22;;;18.58;69.44
21838;BME280;11081;45.946;6.140;2023-07-31T07:06:43;95363.13;;;18.88;68.10
21838;BME280;11081;45.946;6.140;2023-07-31T07:09:11;95358.88;;;18.93;67.40
21838;BME280;11081;45.946;6.140;2023-07-31T07:11:40;95358.31;;;19.06;66.86
21838;BME280;11081;45.946;6.140;2023-07-31T07:14:08;95352.72;;;19.23;66.47
21838;BME280;11081;45.946;6.140;2023-07-31T07:16:36;95351.91;;;19.37;65.70
21838;BME280;11081;45.946;6.140;2023-07-31T07:19:05;95343.91;;;19.47;65.28
21838;BME280;11081;45.946;6.140;2023-07-31T07:21:33;95353.94;;;19.61;65.06
21838;BME280;11081;45.946;6.140;2023-07-31T07:24:01;95344.41;;;19.55;63.89
21838;BME280;11081;45.946;6.140;2023-07-31T07:26:29;95342.00;;;19.53;63.57
21838;BME280;11081;45.946;6.140;2023-07-31T07:28:58;95347.59;;;19.57;63.22
21838;BME280;11081;45.946;6.140;2023-07-31T07:31:28;95345.97;;;19.66;63.13
21838;BME280;11081;45.946;6.140;2023-07-31T07:33:56;95338.50;;;19.73;62.42
21838;BME280;11081;45.946;6.140;2023-07-31T07:36:24;95326.78;;;19.84;63.20
21838;BME280;11081;45.946;6.140;2023-07-31T07:38:52;95338.66;;;19.92;62.31
21838;BME280;11081;45.946;6.140;2023-07-31T07:41:20;95329.88;;;19.96;61.60
21838;BME280;11081;45.946;6.140;2023-07-31T07:43:48;95334.66;;;19.99;62.55
21838;BME280;11081;45.946;6.140;2023-07-31T07:46:17;95328.69;;;20.18;61.82
21838;BME280;11081;45.946;6.140;2023-07-31T07:48:45;95332.91;;;20.19;61.33
21838;BME280;11081;45.946;6.140;2023-07-31T07:51:13;95327.63;;;20.19;61.10
21838;BME280;11081;45.946;6.140;2023-07-31T07:53:41;95323.59;;;20.26;60.86
21838;BME280;11081;45.946;6.140;2023-07-31T07:56:09;95323.78;;;20.35;60.66
21838;BME280;11081;45.946;6.140;2023-07-31T07:58:37;95327.41;;;20.49;60.19
21838;BME280;11081;45.946;6.140;2023-07-31T08:01:05;95338.06;;;20.39;60.10
21838;BME280;11081;45.946;6.140;2023-07-31T08:03:34;95342.44;;;20.25;61.32
21838;BME280;11081;45.946;6.140;2023-07-31T08:06:03;95340.41;;;20.12;62.09
21838;BME280;11081;45.946;6.140;2023-07-31T08:08:31;95331.28;;;20.28;61.39
21838;BME280;11081;45.946;6.140;2023-07-31T08:10:59;95337.56;;;20.37;60.76
21838;BME280;11081;45.946;6.140;2023-07-31T08:13:26;95339.13;;;20.38;60.80
21838;BME280;11081;45.946;6.140;2023-07-31T08:15:55;95341.31;;;20.31;60.13
21838;BME280;11081;45.946;6.140;2023-07-31T08:18:23;95340.19;;;20.37;59.26
21838;BME280;11081;45.946;6.140;2023-07-31T08:20:52;95338.63;;;20.36;59.44
21838;BME280;11081;45.946;6.140;2023-07-31T08:23:20;95333.31;;;20.36;59.10
21838;BME280;11081;45.946;6.140;2023-07-31T08:25:48;95342.91;;;20.32;58.98
21838;BME280;11081;45.946;6.140;2023-07-31T08:28:17;95347.63;;;20.45;57.92
21838;BME280;11081;45.946;6.140;2023-07-31T08:30:45;95341.41;;;20.55;56.84
21838;BME280;11081;45.946;6.140;2023-07-31T08:33:13;95338.63;;;20.41;56.57
21838;BME280;11081;45.946;6.140;2023-07-31T08:35:41;95336.78;;;20.42;56.01
21838;BME280;11081;45.946;6.140;2023-07-31T08:38:12;95338.38;;;20.32;55.89
21838;BME280;11081;45.946;6.140;2023-07-31T08:40:40;95337.25;;;20.49;56.60
21838;BME280;11081;45.946;6.140;2023-07-31T08:43:09;95332.09;;;20.62;55.99
21838;BME280;11081;45.946;6.140;2023-07-31T08:45:37;95326.38;;;20.40;55.94
21838;BME280;11081;45.946;6.140;2023-07-31T08:48:06;95325.38;;;20.36;56.15
21838;BME280;11081;45.946;6.140;2023-07-31T08:50:34;95328.94;;;20.55;54.84
21838;BME280;11081;45.946;6.140;2023-07-31T08:53:03;95323.75;;;20.74;54.69
21838;BME280;11081;45.946;6.140;2023-07-31T08:55:32;95322.94;;;20.74;55.40
21838;BME280;11081;45.946;6.140;2023-07-31T08:58:03;95323.38;;;20.86;54.57
21838;BME280;11081;45.946;6.140;2023-07-31T09:00:32;95317.44;;;20.94;54.34
21838;BME280;11081;45.946;6.140;2023-07-31T09:03:03;95311.25;;;21.04;53.96
21838;BME280;11081;45.946;6.140;2023-07-31T09:05:31;95308.13;;;21.25;54.07
21838;BME280;11081;45.946;6.140;2023-07-31T09:08:01;95311.28;;;21.27;52.96
21838;BME280;11081;45.946;6.140;2023-07-31T09:10:29;95316.00;;;21.30;52.81
21838;BME280;11081;45.946;6.140;2023-07-31T09:12:59;95305.94;;;21.04;53.15
21838;BME280;11081;45.946;6.140;2023-07-31T09:15:27;95312.13;;;20.94;53.13
21838;BME280;11081;45.946;6.140;2023-07-31T09:18:05;95308.84;;;21.02;52.91
21838;BME280;11081;45.946;6.140;2023-07-31T09:20:33;95294.97;;;21.10;53.14
21838;BME280;11081;45.946;6.140;2023-07-31T09:23:09;95297.50;;;21.25;53.67
21838;BME280;11081;45.946;6.140;2023-07-31T09:25:38;95284.56;;;21.38;53.36
21838;BME280;11081;45.946;6.140;2023-07-31T09:28:10;95283.38;;;21.49;53.06
21838;BME280;11081;45.946;6.140;2023-07-31T09:30:46;95278.91;;;21.63;53.38
21838;BME280;11081;45.946;6.140;2023-07-31T09:33:16;95271.97;;;21.67;53.26
21838;BME280;11081;45.946;6.140;2023-07-31T09:35:44;95272.19;;;21.71;53.09
21838;BME280;11081;45.946;6.140;2023-07-31T09:38:13;95262.63;;;21.88;54.08
21838;BME280;11081;45.946;6.140;2023-07-31T09:40:43;95259.69;;;21.90;52.21
21838;BME280;11081;45.946;6.140;2023-07-31T09:43:16;95259.72;;;22.04;51.75
21838;BME280;11081;45.946;6.140;2023-07-31T09:45:45;95256.03;;;22.37;51.63
21838;BME280;11081;45.946;6.140;2023-07-31T09:48:15;95247.28;;;22.50;50.53
21838;BME280;11081;45.946;6.140;2023-07-31T09:50:44;95245.97;;;22.34;50.53
21838;BME280;11081;45.946;6.140;2023-07-31T09:53:12;95239.31;;;22.18;50.75
21838;BME280;11081;45.946;6.140;2023-07-31T09:55:41;95233.13;;;22.04;50.49
21838;BME280;11081;45.946;6.140;2023-07-31T09:58:11;95224.16;;;22.00;50.86
21838;BME280;11081;45.946;6.140;2023-07-31T10:00:40;95225.69;;;22.06;50.44
21838;BME280;11081;45.946;6.140;2023-07-31T10:03:10;95225.69;;;22.06;49.49
21838;BME280;11081;45.946;6.140;2023-07-31T10:05:40;95228.28;;;22.11;49.17
21838;BME280;11081;45.946;6.140;2023-07-31T10:08:12;95226.94;;;22.27;47.98
21838;BME280;11081;45.946;6.140;2023-07-31T10:10:42;95232.56;;;22.39;48.08
21838;BME280;11081;45.946;6.140;2023-07-31T10:13:11;95233.06;;;22.41;48.14
21838;BME280;11081;45.946;6.140;2023-07-31T10:15:41;95233.75;;;22.33;49.64
21838;BME280;11081;45.946;6.140;2023-07-31T10:18:11;95229.09;;;22.25;48.97
21838;BME280;11081;45.946;6.140;2023-07-31T10:20:40;95226.38;;;22.30;50.29
21838;BME280;11081;45.946;6.140;2023-07-31T10:23:09;95225.56;;;22.30;49.91
21838;BME280;11081;45.946;6.140;2023-07-31T10:25:38;95218.19;;;22.40;49.63
21838;BME280;11081;45.946;6.140;2023-07-31T10:28:06;95217.06;;;22.14;51.20
21838;BME280;11081;45.946;6.140;2023-07-31T10:30:36;95208.00;;;22.15;51.70
21838;BME280;11081;45.946;6.140;2023-07-31T10:33:07;95206.56;;;22.04;51.22
21838;BME280;11081;45.946;6.140;2023-07-31T10:35:35;95198.53;;;22.09;51.14
21838;BME280;11081;45.946;6.140;2023-07-31T10:38:09;95199.34;;;22.23;50.07
21838;BME280;11081;45.946;6.140;2023-07-31T10:40:38;95202.69;;;22.15;49.61
21838;BME280;11081;45.946;6.140;2023-07-31T10:43:07;95195.00;;;22.27;50.68
21838;BME280;11081;45.946;6.140;2023-07-31T10:45:39;95203.31;;;22.39;49.22
21838;BME280;11081;45.946;6.140;2023-07-31T10:48:13;95203.50;;;22.29;48.12
21838;BME280;11081;45.946;6.140;2023-07-31T10:50:47;95199.53;;;22.27;47.05
21838;BME280;11081;45.946;6.140;2023-07-31T10:53:22;95202.94;;;22.32;48.25
21838;BME280;11081;45.946;6.140;2023-07-31T10:55:51;95208.25;;;22.46;47.90
21838;BME280;11081;45.946;6.140;2023-07-31T10:58:20;95194.25;;;22.68;48.26
21838;BME280;11081;45.946;6.140;2023-07-31T11:00:48;95196.06;;;22.86;47.00
21838;BME280;11081;45.946;6.140;2023-07-31T11:03:18;95189.34;;;22.75;46.79
21838;BME280;11081;45.946;6.140;2023-07-31T11:05:49;95190.34;;;22.79;46.81
21838;BME280;11081;45.946;6.140;2023-07-31T11:08:21;95187.41;;;22.94;47.29
21838;BME280;11081;45.946;6.140;2023-07-31T11:10:51;95193.28;;;23.05;47.74
21838;BME280;11081;45.946;6.140;2023-07-31T11:13:33;95181.06;;;23.18;46.68
21838;BME280;11081;45.946;6.140;2023-07-31T11:16:01;95185.19;;;23.24;46.35
21838;BME280;11081;45.946;6.140;2023-07-31T11:18:31;95178.28;;;23.23;45.65
21838;BME280;11081;45.946;6.140;2023-07-31T11:20:59;95189.34;;;23.16;45.22
21838;BME280;11081;45.946;6.140;2023-07-31T11:23:27;95185.97;;;23.24;45.42
21838;BME280;11081;45.946;6.140;2023-07-31T11:25:59;95181.53;;;23.20;45.71
21838;BME280;11081;45.946;6.140;2023-07-31T11:28:31;95180.34;;;23.26;45.74
21838;BME280;11081;45.946;6.140;2023-07-31T11:31:00;95175.88;;;23.35;46.37
21838;BME280;11081;45.946;6.140;2023-07-31T11:33:29;95173.91;;;23.27;46.57
21838;BME280;11081;45.946;6.140;2023-07-31T11:35:58;95165.69;;;23.15;46.02
21838;BME280;11081;45.946;6.140;2023-07-31T11:38:27;95170.78;;;23.25;47.27
21838;BME280;11081;45.946;6.140;2023-07-31T11:41:00;95164.03;;;23.41;46.36
21838;BME280;11081;45.946;6.140;2023-07-31T11:43:30;95175.03;;;23.48;46.77
21838;BME280;11081;45.946;6.140;2023-07-31T11:46:02;95169.09;;;23.51;47.03
21838;BME280;11081;45.946;6.140;2023-07-31T11:48:32;95163.19;;;23.54;46.67
21838;BME280;11081;45.946;6.140;2023-07-31T11:51:04;95160.44;;;23.59;45.85
21838;BME280;11081;45.946;6.140;2023-07-31T11:53:36;95163.47;;;23.66;45.82
21838;BME280;11081;45.946;6.140;2023-07-31T11:56:07;95163.63;;;23.70;46.35
21838;BME280;11081;45.946;6.140;2023-07-31T11:58:36;95154.50;;;23.62;45.28
21838;BME280;11081;45.946;6.140;2023-07-31T12:01:05;95152.78;;;23.66;44.76
21838;BME280;11081;45.946;6.140;2023-07-31T12:03:33;95145.16;;;23.73;45.08
21838;BME280;11081;45.946;6.140;2023-07-31T12:06:03;95134.59;;;23.91;45.48
21838;BME280;11081;45.946;6.140;2023-07-31T12:08:31;95126.66;;;23.99;45.73
21838;BME280;11081;45.946;6.140;2023-07-31T12:11:03;95123.06;;;24.04;44.46
21838;BME280;11081;45.946;6.140;2023-07-31T12:13:32;95122.13;;;24.00;44.24
21838;BME280;11081;45.946;6.140;2023-07-31T12:16:03;95129.88;;;23.88;44.94
21838;BME280;11081;45.946;6.140;2023-07-31T12:18:34;95126.13;;;23.89;43.84
21838;BME280;11081;45.946;6.140;2023-07-31T12:21:05;95112.78;;;23.89;43.44
21838;BME280;11081;45.946;6.140;2023-07-31T12:23:36;95102.59;;;23.91;44.25
21838;BME280;11081;45.946;6.140;2023-07-31T12:26:05;95108.31;;;23.98;44.09
21838;BME280;11081;45.946;6.140;2023-07-31T12:28:37;95108.03;;;24.08;43.41
21838;BME280;11081;45.946;6.140;2023-07-31T12:31:05;95102.13;;;24.20;42.19
21838;BME280;11081;45.946;6.140;2023-07-31T12:33:34;95094.47;;;24.27;42.06
21838;BME280;11081;45.946;6.140;2023-07-31T12:36:07;95095.00;;;24.38;42.86
21838;BME280;11081;45.946;6.140;2023-07-31T12:38:35;95090.16;;;24.48;42.96
21838;BME280;11081;45.946;6.140;2023-07-31T12:41:03;95084.97;;;24.52;43.09
21838;BME280;11081;45.946;6.140;2023-07-31T12:43:33;95074.78;;;24.45;42.41
21838;BME280;11081;45.946;6.140;2023-07-31T12:46:01;95071.63;;;24.43;42.67
21838;BME280;11081;45.946;6.140;2023-07-31T12:48:29;95067.75;;;24.58;42.72
21838;BME280;11081;45.946;6.140;2023-07-31T12:50:57;95069.63;;;24.66;43.35
21838;BME280;11081;45.946;6.140;2023-07-31T12:53:27;95061.94;;;24.73;43.02
21838;BME280;11081;45.946;6.140;2023-07-31T12:55:55;95052.19;;;24.77;42.35
21838;BME280;11081;45.946;6.140;2023-07-31T12:58:23;95052.06;;;24.82;42.12
21838;BME280;11081;45.946;6.140;2023-07-31T13:00:51;95049.44;;;25.00;43.04
21838;BME280;11081;45.946;6.140;2023-07-31T13:03:19;95044.56;;;25.02;41.36
21838;BME280;11081;45.946;6.140;2023-07-31T13:05:47;95047.69;;;24.86;40.69
21838;BME280;11081;45.946;6.140;2023-07-31T13:08:15;95040.13;;;24.88;40.48
21838;BME280;11081;45.946;6.140;2023-07-31T13:10:45;95037.03;;;25.04;41.19